sensor_id;sensor_type;location;lat;lon;timestamp;pressure;altitude;pressure_sealevel;temperature;humidity
73633;BME280;61927;50.080;14.418;2023-02-11T00:01:35;101252.50;;;0.65;66.98
73633;BME280;61927;50.080;14.418;2023-02-11T00:04:03;101252.47;;;0.62;67.42
73633;BME280;61927;50.080;14.418;2023-02-11T00:06:32;101247.25;;;0.63;66.60
73633;BME280;61927;50.080;14.418;2023-02-11T00:08:58;101236.81;;;0.65;67.39
73633;BME280;61927;50.080;14.418;2023-02-11T00:11:25;101239.47;;;0.70;66.44
73633;BME280;61927;50.080;14.418;2023-02-11T00:13:56;101232.50;;;0.69;67.02
73633;BME280;61927;50.080;14.418;2023-02-11T00:16:22;101232.50;;;0.69;66.66
73633;BME280;61927;50.080;14.418;2023-02-11T00:18:48;101224.66;;;0.69;66.92
73633;BME280;61927;50.080;14.418;2023-02-11T00:21:19;101223.81;;;0.71;67.02
73633;BME280;61927;50.080;14.418;2023-02-11T00:23:45;101214.22;;;0.72;67.11
73633;BME280;61927;50.080;14.418;2023-02-11T00:26:17;101215.06;;;0.68;66.95
73633;BME280;61927;50.080;14.418;2023-02-11T00:28:44;101223.78;;;0.67;67.53
73633;BME280;61927;50.080;14.418;2023-02-11T00:31:10;101219.41;;;0.67;67.19
73633;BME280;61927;50.080;14.418;2023-02-11T00:33:36;101216.78;;;0.66;67.76
73633;BME280;61927;50.080;14.418;2023-02-11T00:36:06;101209.84;;;0.68;67.91
73633;BME280;61927;50.080;14.418;2023-02-11T00:38:33;101200.28;;;0.71;68.22
73633;BME280;61927;50.080;14.418;2023-02-11T00:40:58;101200.31;;;0.74;68.17
73633;BME280;61927;50.080;14.418;2023-02-11T00:43:24;101202.97;;;0.83;67.86
73633;BME280;61927;50.080;14.418;2023-02-11T00:45:50;101199.53;;;0.89;67.12
73633;BME280;61927;50.080;14.418;2023-02-11T00:48:15;101199.53;;;0.93;67.82
73633;BME280;61927;50.080;14.418;2023-02-11T00:50:41;101190.88;;;1.02;66.78
73633;BME280;61927;50.080;14.418;2023-02-11T00:53:07;101187.44;;;1.11;66.58
73633;BME280;61927;50.080;14.418;2023-02-11T00:55:32;101177.88;;;1.19;66.60
73633;BME280;61927;50.080;14.418;2023-02-11T00:57:58;101173.53;;;1.25;66.40
73633;BME280;61927;50.080;14.418;2023-02-11T01:00:25;101170.06;;;1.26;65.67
73633;BME280;61927;50.080;14.418;2023-02-11T01:02:51;101169.19;;;1.23;65.52
73633;BME280;61927;50.080;14.418;2023-02-11T01:05:17;101163.94;;;1.18;66.15
73633;BME280;61927;50.080;14.418;2023-02-11T01:07:43;101146.50;;;1.14;65.95
73633;BME280;61927;50.080;14.418;2023-02-11T01:10:09;101145.59;;;1.12;65.49
73633;BME280;61927;50.080;14.418;2023-02-11T01:12:35;101146.47;;;1.13;66.32
73633;BME280;61927;50.080;14.418;2023-02-11T01:15:01;101137.78;;;1.15;65.54
73633;BME280;61927;50.080;14.418;2023-02-11T01:17:27;101133.44;;;1.17;65.39
73633;BME280;61927;50.080;14.418;2023-02-11T01:19:52;101136.91;;;1.13;66.25
73633;BME280;61927;50.080;14.418;2023-02-11T01:22:18;101140.38;;;1.09;66.28
73633;BME280;61927;50.080;14.418;2023-02-11T01:24:43;101138.59;;;1.02;65.54
73633;BME280;61927;50.080;14.418;2023-02-11T01:27:09;101149.03;;;0.94;66.05
73633;BME280;61927;50.080;14.418;2023-02-11T01:29:35;101154.22;;;0.87;65.73
73633;BME280;61927;50.080;14.418;2023-02-11T01:32:01;101142.88;;;0.83;66.23
73633;BME280;61927;50.080;14.418;2023-02-11T01:34:26;101132.41;;;0.82;66.91
73633;BME280;61927;50.080;14.418;2023-02-11T01:36:58;101129.78;;;0.77;67.04
73633;BME280;61927;50.080;14.418;2023-02-11T01:39:25;101134.13;;;0.77;66.71
73633;BME280;61927;50.080;14.418;2023-02-11T01:41:52;101130.66;;;0.78;67.42
73633;BME280;61927;50.080;14.418;2023-02-11T01:44:27;101138.50;;;0.81;66.78
73633;BME280;61927;50.080;14.418;2023-02-11T01:46:53;101124.59;;;0.86;66.82
73633;BME280;61927;50.080;14.418;2023-02-11T01:49:26;101121.13;;;0.93;67.04
73633;BME280;61927;50.080;14.418;2023-02-11T01:54:37;101105.50;;;1.04;66.75
73633;BME280;61927;50.080;14.418;2023-02-11T01:57:28;101111.63;;;1.11;65.94
73633;BME280;61927;50.080;14.418;2023-02-11T02:05:14;101102.91;;;1.13;66.35
73633;BME280;61927;50.080;14.418;2023-02-11T02:10:16;101097.66;;;1.10;66.61
73633;BME280;61927;50.080;14.418;2023-02-11T02:12:43;101096.81;;;1.11;65.80
73633;BME280;61927;50.080;14.418;2023-02-11T02:29:24;101064.56;;;1.12;66.53
73633;BME280;61927;50.080;14.418;2023-02-11T02:37:20;101055.88;;;1.25;66.09
73633;BME280;61927;50.080;14.418;2023-02-11T02:39:49;101055.88;;;1.30;66.03
73633;BME280;61927;50.080;14.418;2023-02-11T02:42:15;101058.50;;;1.35;65.93
73633;BME280;61927;50.080;14.418;2023-02-11T02:44:49;101061.13;;;1.41;65.86
73633;BME280;61927;50.080;14.418;2023-02-11T02:47:16;101065.50;;;1.46;65.42
73633;BME280;61927;50.080;14.418;2023-02-11T02:49:41;101060.25;;;1.51;65.68
73633;BME280;61927;50.080;14.418;2023-02-11T03:01:15;101052.41;;;1.69;64.34
73633;BME280;61927;50.080;14.418;2023-02-11T03:04:17;101061.13;;;1.65;64.98
73633;BME280;61927;50.080;14.418;2023-02-11T03:06:57;101048.94;;;1.66;65.06
73633;BME280;61927;50.080;14.418;2023-02-11T03:09:31;101044.56;;;1.61;64.70
73633;BME280;61927;50.080;14.418;2023-02-11T03:12:01;101041.09;;;1.63;64.79
73633;BME280;61927;50.080;14.418;2023-02-11T03:14:28;101047.19;;;1.63;64.60
73633;BME280;61927;50.080;14.418;2023-02-11T03:16:57;101034.97;;;1.65;64.63
73633;BME280;61927;50.080;14.418;2023-02-11T03:19:50;101028.88;;;1.69;65.13
73633;BME280;61927;50.080;14.418;2023-02-11T03:22:19;101021.03;;;1.72;64.58
73633;BME280;61927;50.080;14.418;2023-02-11T03:24:46;101031.50;;;1.69;64.61
73633;BME280;61927;50.080;14.418;2023-02-11T03:33:02;101022.75;;;1.67;64.94
73633;BME280;61927;50.080;14.418;2023-02-11T03:35:40;101020.16;;;1.72;65.11
73633;BME280;61927;50.080;14.418;2023-02-11T03:38:13;101031.47;;;1.74;64.44
73633;BME280;61927;50.080;14.418;2023-02-11T03:40:41;101014.03;;;1.80;64.59
73633;BME280;61927;50.080;14.418;2023-02-11T03:43:12;101011.41;;;1.83;64.84
73633;BME280;61927;50.080;14.418;2023-02-11T03:45:42;101009.66;;;1.81;64.56
73633;BME280;61927;50.080;14.418;2023-02-11T03:48:16;101013.16;;;1.78;64.24
73633;BME280;61927;50.080;14.418;2023-02-11T03:50:45;101007.94;;;1.80;64.80
73633;BME280;61927;50.080;14.418;2023-02-11T03:53:13;101000.94;;;1.79;64.30
73633;BME280;61927;50.080;14.418;2023-02-11T03:55:40;100996.59;;;1.76;64.59
73633;BME280;61927;50.080;14.418;2023-02-11T03:58:07;101000.09;;;1.72;64.57
73633;BME280;61927;50.080;14.418;2023-02-11T04:00:35;100999.22;;;1.69;65.31
73633;BME280;61927;50.080;14.418;2023-02-11T04:03:02;100991.38;;;1.67;65.36
73633;BME280;61927;50.080;14.418;2023-02-11T04:05:28;100992.25;;;1.65;65.08
73633;BME280;61927;50.080;14.418;2023-02-11T04:07:54;100989.63;;;1.61;65.05
73633;BME280;61927;50.080;14.418;2023-02-11T04:10:20;100983.53;;;1.58;65.75
73633;BME280;61927;50.080;14.418;2023-02-11T04:12:45;100978.28;;;1.58;66.10
73633;BME280;61927;50.080;14.418;2023-02-11T04:15:11;100959.97;;;1.67;65.67
73633;BME280;61927;50.080;14.418;2023-02-11T04:17:37;100947.75;;;1.71;65.36
73633;BME280;61927;50.080;14.418;2023-02-11T04:20:02;100940.75;;;1.77;65.33
73633;BME280;61927;50.080;14.418;2023-02-11T04:22:29;100943.38;;;1.80;64.72
73633;BME280;61927;50.080;14.418;2023-02-11T04:24:54;100932.03;;;1.83;65.10
73633;BME280;61927;50.080;14.418;2023-02-11T04:27:20;100944.22;;;1.87;65.28
73633;BME280;61927;50.080;14.418;2023-02-11T04:29:45;100939.84;;;1.90;64.56
73633;BME280;61927;50.080;14.418;2023-02-11T04:32:11;100938.09;;;1.91;64.95
73633;BME280;61927;50.080;14.418;2023-02-11T04:34:37;100940.72;;;1.94;64.48
73633;BME280;61927;50.080;14.418;2023-02-11T04:37:03;100945.94;;;1.96;64.47
73633;BME280;61927;50.080;14.418;2023-02-11T04:39:28;100952.06;;;1.96;64.57
73633;BME280;61927;50.080;14.418;2023-02-11T04:41:54;100950.31;;;1.97;64.55
73633;BME280;61927;50.080;14.418;2023-02-11T04:44:19;100944.19;;;2.01;64.56
73633;BME280;61927;50.080;14.418;2023-02-11T04:46:45;100938.94;;;2.05;64.86
73633;BME280;61927;50.080;14.418;2023-02-11T04:49:12;100917.97;;;2.07;64.61
73633;BME280;61927;50.080;14.418;2023-02-11T04:51:38;100911.88;;;2.08;64.68
73633;BME280;61927;50.080;14.418;2023-02-11T04:54:04;100908.38;;;2.07;64.83
73633;BME280;61927;50.080;14.418;2023-02-11T04:56:30;100912.72;;;2.10;64.72
73633;BME280;61927;50.080;14.418;2023-02-11T04:58:55;100910.97;;;2.12;64.39
73633;BME280;61927;50.080;14.418;2023-02-11T05:01:21;100904.88;;;2.11;64.06
73633;BME280;61927;50.080;14.418;2023-02-11T05:03:47;100902.22;;;2.17;64.55
73633;BME280;61927;50.080;14.418;2023-02-11T05:06:12;100906.56;;;2.21;64.21
73633;BME280;61927;50.080;14.418;2023-02-11T05:08:38;100906.56;;;2.21;64.53
73633;BME280;61927;50.080;14.418;2023-02-11T05:11:04;100907.47;;;2.17;64.21
73633;BME280;61927;50.080;14.418;2023-02-11T05:13:29;100910.06;;;2.20;64.09
73633;BME280;61927;50.080;14.418;2023-02-11T05:15:55;100908.28;;;2.29;64.04
73633;BME280;61927;50.080;14.418;2023-02-11T05:18:21;100909.16;;;2.31;64.15
73633;BME280;61927;50.080;14.418;2023-02-11T05:20:47;100901.28;;;2.34;64.19
73633;BME280;61927;50.080;14.418;2023-02-11T05:23:13;100889.91;;;2.36;63.88
73633;BME280;61927;50.080;14.418;2023-02-11T05:25:38;100891.63;;;2.40;63.64
73633;BME280;61927;50.080;14.418;2023-02-11T05:28:04;100892.50;;;2.39;63.74
73633;BME280;61927;50.080;14.418;2023-02-11T05:30:30;100891.63;;;2.40;63.90
73633;BME280;61927;50.080;14.418;2023-02-11T05:32:55;100897.72;;;2.42;63.93
73633;BME280;61927;50.080;14.418;2023-02-11T05:35:22;100902.94;;;2.47;63.61
73633;BME280;61927;50.080;14.418;2023-02-11T05:37:48;100902.94;;;2.48;63.71
73633;BME280;61927;50.080;14.418;2023-02-11T05:40:13;100901.19;;;2.47;63.67
73633;BME280;61927;50.080;14.418;2023-02-11T05:42:39;100897.72;;;2.47;63.22
73633;BME280;61927;50.080;14.418;2023-02-11T05:45:05;100900.34;;;2.45;63.42
73633;BME280;61927;50.080;14.418;2023-02-11T05:47:31;100901.22;;;2.46;63.76
73633;BME280;61927;50.080;14.418;2023-02-11T05:49:56;100910.81;;;2.47;63.79
73633;BME280;61927;50.080;14.418;2023-02-11T05:52:22;100910.75;;;2.54;63.51
73633;BME280;61927;50.080;14.418;2023-02-11T05:54:49;100898.53;;;2.53;63.48
73633;BME280;61927;50.080;14.418;2023-02-11T05:57:15;100903.72;;;2.63;63.29
73633;BME280;61927;50.080;14.418;2023-02-11T05:59:41;100898.47;;;2.64;63.51
73633;BME280;61927;50.080;14.418;2023-02-11T06:02:07;100900.22;;;2.67;63.47
73633;BME280;61927;50.080;14.418;2023-02-11T06:04:34;100892.31;;;2.71;63.02
73633;BME280;61927;50.080;14.418;2023-02-11T06:06:59;100895.78;;;2.76;62.98
73633;BME280;61927;50.080;14.418;2023-02-11T06:09:25;100901.00;;;2.76;63.00
73633;BME280;61927;50.080;14.418;2023-02-11T06:11:51;100906.22;;;2.81;62.88
73633;BME280;61927;50.080;14.418;2023-02-11T06:14:17;100907.09;;;2.81;62.52
73633;BME280;61927;50.080;14.418;2023-02-11T06:16:43;100894.00;;;2.81;63.13
73633;BME280;61927;50.080;14.418;2023-02-11T06:19:09;100893.13;;;2.81;62.97
73633;BME280;61927;50.080;14.418;2023-02-11T06:21:34;100894.84;;;2.83;63.02
73633;BME280;61927;50.080;14.418;2023-02-11T06:24:00;100900.94;;;2.85;63.03
73633;BME280;61927;50.080;14.418;2023-02-11T06:26:25;100904.44;;;2.87;62.80
73633;BME280;61927;50.080;14.418;2023-02-11T06:28:51;100905.28;;;2.89;62.99
73633;BME280;61927;50.080;14.418;2023-02-11T06:31:16;100900.03;;;2.89;62.92
73633;BME280;61927;50.080;14.418;2023-02-11T06:33:43;100900.94;;;2.88;63.00
73633;BME280;61927;50.080;14.418;2023-02-11T06:36:15;100898.28;;;2.90;62.88
73633;BME280;61927;50.080;14.418;2023-02-11T06:38:41;100894.78;;;2.91;62.67
73633;BME280;61927;50.080;14.418;2023-02-11T06:41:15;100900.00;;;2.94;62.83
73633;BME280;61927;50.080;14.418;2023-02-11T06:43:42;100903.50;;;2.93;63.08
73633;BME280;61927;50.080;14.418;2023-02-11T06:46:07;100899.09;;;3.00;62.98
73633;BME280;61927;50.080;14.418;2023-02-11T06:48:34;100909.53;;;3.06;62.81
73633;BME280;61927;50.080;14.418;2023-02-11T06:51:04;100898.97;;;3.16;62.46
73633;BME280;61927;50.080;14.418;2023-02-11T06:53:31;100885.81;;;3.18;62.10
73633;BME280;61927;50.080;14.418;2023-02-11T06:56:03;100891.03;;;3.21;62.10
73633;BME280;61927;50.080;14.418;2023-02-11T06:58:29;100895.44;;;3.19;61.86
73633;BME280;61927;50.080;14.418;2023-02-11T07:00:54;100898.88;;;3.26;62.11
73633;BME280;61927;50.080;14.418;2023-02-11T07:03:20;100907.59;;;3.29;62.27
73633;BME280;61927;50.080;14.418;2023-02-11T07:05:46;100900.53;;;3.36;61.86
73633;BME280;61927;50.080;14.418;2023-02-11T07:08:11;100903.09;;;3.43;61.35
73633;BME280;61927;50.080;14.418;2023-02-11T07:10:37;100902.19;;;3.46;61.18
73633;BME280;61927;50.080;14.418;2023-02-11T07:13:02;100911.78;;;3.47;61.63
73633;BME280;61927;50.080;14.418;2023-02-11T07:15:28;100910.94;;;3.46;61.39
73633;BME280;61927;50.080;14.418;2023-02-11T07:17:53;100905.66;;;3.48;61.43
73633;BME280;61927;50.080;14.418;2023-02-11T07:20:19;100911.78;;;3.48;61.09
73633;BME280;61927;50.080;14.418;2023-02-11T07:22:45;100919.63;;;3.50;61.22
73633;BME280;61927;50.080;14.418;2023-02-11T07:25:10;100914.34;;;3.53;61.52
73633;BME280;61927;50.080;14.418;2023-02-11T07:27:36;100915.22;;;3.53;61.34
73633;BME280;61927;50.080;14.418;2023-02-11T07:30:02;100911.72;;;3.56;61.08
73633;BME280;61927;50.080;14.418;2023-02-11T07:32:28;100909.97;;;3.55;61.19
73633;BME280;61927;50.080;14.418;2023-02-11T07:34:54;100902.03;;;3.60;61.95
73633;BME280;61927;50.080;14.418;2023-02-11T07:37:20;100916.03;;;3.60;61.54
73633;BME280;61927;50.080;14.418;2023-02-11T07:39:45;100907.28;;;3.61;61.54
73633;BME280;61927;50.080;14.418;2023-02-11T07:42:11;100918.66;;;3.62;61.48
73633;BME280;61927;50.080;14.418;2023-02-11T07:44:37;100910.75;;;3.63;61.66
73633;BME280;61927;50.080;14.418;2023-02-11T07:47:02;100918.59;;;3.66;61.06
73633;BME280;61927;50.080;14.418;2023-02-11T07:49:28;100911.59;;;3.65;61.17
73633;BME280;61927;50.080;14.418;2023-02-11T07:51:54;100909.84;;;3.67;62.34
73633;BME280;61927;50.080;14.418;2023-02-11T07:54:19;100921.13;;;3.75;60.86
73633;BME280;61927;50.080;14.418;2023-02-11T07:56:45;100920.22;;;3.79;61.23
73633;BME280;61927;50.080;14.418;2023-02-11T07:59:11;100921.03;;;3.83;60.91
73633;BME280;61927;50.080;14.418;2023-02-11T08:01:37;100920.16;;;3.85;60.87
73633;BME280;61927;50.080;14.418;2023-02-11T08:04:03;100923.63;;;3.86;61.28
73633;BME280;61927;50.080;14.418;2023-02-11T08:06:30;100914.84;;;3.88;60.68
73633;BME280;61927;50.080;14.418;2023-02-11T08:08:57;100910.47;;;3.89;61.17
73633;BME280;61927;50.080;14.418;2023-02-11T08:11:25;100905.22;;;3.91;60.62
73633;BME280;61927;50.080;14.418;2023-02-11T08:13:52;100902.59;;;3.91;61.03
73633;BME280;61927;50.080;14.418;2023-02-11T08:16:19;100900.84;;;3.89;61.37
73633;BME280;61927;50.080;14.418;2023-02-11T08:18:46;100894.72;;;3.91;60.95
73633;BME280;61927;50.080;14.418;2023-02-11T08:21:12;100909.56;;;3.93;60.94
73633;BME280;61927;50.080;14.418;2023-02-11T08:23:39;100903.38;;;3.99;60.35
73633;BME280;61927;50.080;14.418;2023-02-11T08:26:08;100919.97;;;4.01;60.61
73633;BME280;61927;50.080;14.418;2023-02-11T08:28:38;100918.13;;;4.09;60.35
73633;BME280;61927;50.080;14.418;2023-02-11T08:31:16;100918.06;;;4.13;60.15
73633;BME280;61927;50.080;14.418;2023-02-11T08:33:43;100911.91;;;4.16;59.79
73633;BME280;61927;50.080;14.418;2023-02-11T08:36:15;100913.63;;;4.18;60.12
73633;BME280;61927;50.080;14.418;2023-02-11T08:38:41;100908.22;;;4.31;60.10
73633;BME280;61927;50.080;14.418;2023-02-11T08:41:07;100903.69;;;4.42;59.83
73633;BME280;61927;50.080;14.418;2023-02-11T08:43:34;100900.13;;;4.46;59.68
73633;BME280;61927;50.080;14.418;2023-02-11T08:46:00;100898.25;;;4.54;59.48
73633;BME280;61927;50.080;14.418;2023-02-11T08:48:26;100906.88;;;4.64;59.38
73633;BME280;61927;50.080;14.418;2023-02-11T08:50:56;100908.63;;;4.65;58.85
73633;BME280;61927;50.080;14.418;2023-02-11T08:53:21;100903.44;;;4.60;58.75
73633;BME280;61927;50.080;14.418;2023-02-11T08:55:52;100904.28;;;4.62;59.06
73633;BME280;61927;50.080;14.418;2023-02-11T08:58:19;100907.66;;;4.70;58.98
73633;BME280;61927;50.080;14.418;2023-02-11T09:00:47;100915.47;;;4.76;58.67
73633;BME280;61927;50.080;14.418;2023-02-11T09:03:13;100908.28;;;4.88;59.17
73633;BME280;61927;50.080;14.418;2023-02-11T09:05:41;100909.06;;;4.94;58.31
73633;BME280;61927;50.080;14.418;2023-02-11T09:08:07;100893.09;;;5.05;57.99
73633;BME280;61927;50.080;14.418;2023-02-11T09:10:32;100896.44;;;5.14;58.20
73633;BME280;61927;50.080;14.418;2023-02-11T09:12:58;100893.66;;;5.24;57.92
73633;BME280;61927;50.080;14.418;2023-02-11T09:15:24;100904.84;;;5.36;57.87
73633;BME280;61927;50.080;14.418;2023-02-11T09:17:50;100901.25;;;5.42;57.55
73633;BME280;61927;50.080;14.418;2023-02-11T09:20:16;100911.81;;;5.40;57.54
73633;BME280;61927;50.080;14.418;2023-02-11T09:22:41;100896.19;;;5.30;57.36
73633;BME280;61927;50.080;14.418;2023-02-11T09:25:07;100900.75;;;5.20;57.71
73633;BME280;61927;50.080;14.418;2023-02-11T09:27:33;100900.78;;;5.18;58.24
73633;BME280;61927;50.080;14.418;2023-02-11T09:29:58;100900.69;;;5.23;58.01
73633;BME280;61927;50.080;14.418;2023-02-11T09:32:24;100905.94;;;5.25;58.14
73633;BME280;61927;50.080;14.418;2023-02-11T09:34:50;100905.03;;;5.26;58.13
73633;BME280;61927;50.080;14.418;2023-02-11T09:37:15;100898.81;;;5.30;57.35
73633;BME280;61927;50.080;14.418;2023-02-11T09:39:41;100917.22;;;5.31;57.71
73633;BME280;61927;50.080;14.418;2023-02-11T09:44:48;100905.06;;;5.24;57.91
73633;BME280;61927;50.080;14.418;2023-02-11T09:47:22;100911.16;;;5.28;58.09
73633;BME280;61927;50.080;14.418;2023-02-11T09:50:02;100899.75;;;5.27;58.88
73633;BME280;61927;50.080;14.418;2023-02-11T09:55:20;100905.06;;;5.24;58.83
73633;BME280;61927;50.080;14.418;2023-02-11T09:57:47;100905.09;;;5.23;58.38
73633;BME280;61927;50.080;14.418;2023-02-11T10:00:20;100903.19;;;5.31;58.86
73633;BME280;61927;50.080;14.418;2023-02-11T10:02:55;100907.41;;;5.41;58.20
73633;BME280;61927;50.080;14.418;2023-02-11T10:08:19;100926.66;;;5.43;58.04
73633;BME280;61927;50.080;14.418;2023-02-11T10:13:48;100939.75;;;5.47;58.54
73633;BME280;61927;50.080;14.418;2023-02-11T10:16:39;100930.09;;;5.48;58.99
73633;BME280;61927;50.080;14.418;2023-02-11T10:24:33;100888.81;;;5.50;58.92
73633;BME280;61927;50.080;14.418;2023-02-11T10:27:03;100893.00;;;5.60;59.33
73633;BME280;61927;50.080;14.418;2023-02-11T10:29:48;100875.28;;;5.70;59.21
73633;BME280;61927;50.080;14.418;2023-02-11T10:34:59;100872.28;;;5.88;58.86
73633;BME280;61927;50.080;14.418;2023-02-11T10:37:26;100876.56;;;5.95;58.56
73633;BME280;61927;50.080;14.418;2023-02-11T10:39:51;100860.63;;;6.01;58.14
73633;BME280;61927;50.080;14.418;2023-02-11T10:42:17;100856.16;;;6.05;58.39
73633;BME280;61927;50.080;14.418;2023-02-11T10:44:56;100866.69;;;6.05;58.62
73633;BME280;61927;50.080;14.418;2023-02-11T10:47:23;100852.53;;;6.10;58.68
73633;BME280;61927;50.080;14.418;2023-02-11T10:49:50;100840.28;;;6.08;58.60
73633;BME280;61927;50.080;14.418;2023-02-11T10:52:22;100842.72;;;6.17;58.34
73633;BME280;61927;50.080;14.418;2023-02-11T10:55:15;100843.44;;;6.25;58.21
73633;BME280;61927;50.080;14.418;2023-02-11T10:57:50;100846.13;;;6.22;57.84
73633;BME280;61927;50.080;14.418;2023-02-11T11:02:43;100843.00;;;6.05;58.41
73633;BME280;61927;50.080;14.418;2023-02-11T11:05:17;100845.63;;;6.05;59.10
73633;BME280;61927;50.080;14.418;2023-02-11T11:07:56;100846.41;;;6.10;58.78
73633;BME280;61927;50.080;14.418;2023-02-11T11:10:28;100860.44;;;6.10;59.30
73633;BME280;61927;50.080;14.418;2023-02-11T11:12:56;100851.53;;;6.16;58.87
73633;BME280;61927;50.080;14.418;2023-02-11T11:15:23;100833.69;;;6.29;58.68
73633;BME280;61927;50.080;14.418;2023-02-11T11:18:08;100841.63;;;6.27;59.21
73633;BME280;61927;50.080;14.418;2023-02-11T11:20:34;100842.59;;;6.23;58.81
73633;BME280;61927;50.080;14.418;2023-02-11T11:23:14;100848.66;;;6.27;58.91
73633;BME280;61927;50.080;14.418;2023-02-11T11:25:44;100850.38;;;6.29;59.17
73633;BME280;61927;50.080;14.418;2023-02-11T11:28:24;100850.47;;;6.25;59.22
73633;BME280;61927;50.080;14.418;2023-02-11T11:30:52;100865.41;;;6.24;59.35
73633;BME280;61927;50.080;14.418;2023-02-11T11:33:22;100862.91;;;6.18;59.38
73633;BME280;61927;50.080;14.418;2023-02-11T11:36:01;100867.28;;;6.19;59.71
73633;BME280;61927;50.080;14.418;2023-02-11T11:38:28;100862.88;;;6.20;59.42
73633;BME280;61927;50.080;14.418;2023-02-11T11:43:39;100855.25;;;6.06;60.44
73633;BME280;61927;50.080;14.418;2023-02-11T11:46:04;100853.34;;;6.14;59.79
73633;BME280;61927;50.080;14.418;2023-02-11T11:48:39;100855.91;;;6.17;60.00
73633;BME280;61927;50.080;14.418;2023-02-11T11:51:10;100837.28;;;6.25;60.14
73633;BME280;61927;50.080;14.418;2023-02-11T11:53:40;100854.00;;;6.24;60.01
73633;BME280;61927;50.080;14.418;2023-02-11T11:56:13;100851.47;;;6.19;60.29
73633;BME280;61927;50.080;14.418;2023-02-11T11:58:40;100847.03;;;6.21;60.04
73633;BME280;61927;50.080;14.418;2023-02-11T12:04:10;100838.91;;;6.30;59.72
73633;BME280;61927;50.080;14.418;2023-02-11T12:09:36;100851.09;;;6.36;60.23
73633;BME280;61927;50.080;14.418;2023-02-11T12:12:19;100847.31;;;6.47;59.64
73633;BME280;61927;50.080;14.418;2023-02-11T12:23:41;100800.75;;;6.46;60.14
73633;BME280;61927;50.080;14.418;2023-02-11T12:26:21;100802.56;;;6.44;60.04
73633;BME280;61927;50.080;14.418;2023-02-11T12:31:52;100808.81;;;6.40;60.67
73633;BME280;61927;50.080;14.418;2023-02-11T12:39:56;100830.78;;;6.41;61.33
73633;BME280;61927;50.080;14.418;2023-02-11T12:42:42;100813.03;;;6.47;60.83
73633;BME280;61927;50.080;14.418;2023-02-11T12:54:05;100822.00;;;6.40;61.35
73633;BME280;61927;50.080;14.418;2023-02-11T12:56:44;100807.13;;;6.38;61.69
73633;BME280;61927;50.080;14.418;2023-02-11T12:59:24;100823.75;;;6.40;61.15
73633;BME280;61927;50.080;14.418;2023-02-11T13:01:54;100816.66;;;6.43;61.62
73633;BME280;61927;50.080;14.418;2023-02-11T13:04:27;100812.22;;;6.45;61.00
73633;BME280;61927;50.080;14.418;2023-02-11T13:06:58;100804.19;;;6.50;61.21
73633;BME280;61927;50.080;14.418;2023-02-11T13:09:33;100793.56;;;6.53;61.14
73633;BME280;61927;50.080;14.418;2023-02-11T13:12:02;100794.38;;;6.57;61.14
73633;BME280;61927;50.080;14.418;2023-02-11T13:14:51;100812.59;;;6.66;61.29
73633;BME280;61927;50.080;14.418;2023-02-11T13:17:26;100802.78;;;6.72;60.59
73633;BME280;61927;50.080;14.418;2023-02-11T13:20:02;100798.97;;;6.84;60.55
73633;BME280;61927;50.080;14.418;2023-02-11T13:22:45;100812.00;;;6.90;60.26
73633;BME280;61927;50.080;14.418;2023-02-11T13:25:28;100808.50;;;6.90;60.18
73633;BME280;61927;50.080;14.418;2023-02-11T13:28:22;100796.97;;;6.94;59.92
73633;BME280;61927;50.080;14.418;2023-02-11T13:30:44;100795.97;;;6.98;59.81
73633;BME280;61927;50.080;14.418;2023-02-11T13:36:09;100818.03;;;6.95;59.81
73633;BME280;61927;50.080;14.418;2023-02-11T13:38:34;100806.81;;;6.87;59.81
73633;BME280;61927;50.080;14.418;2023-02-11T13:44:05;100798.09;;;6.84;60.14
73633;BME280;61927;50.080;14.418;2023-02-11T13:46:53;100792.91;;;6.80;60.48
73633;BME280;61927;50.080;14.418;2023-02-11T13:49:23;100803.41;;;6.82;60.35
73633;BME280;61927;50.080;14.418;2023-02-11T13:51:50;100800.72;;;6.84;60.27
73633;BME280;61927;50.080;14.418;2023-02-11T13:54:34;100800.72;;;6.84;60.77
73633;BME280;61927;50.080;14.418;2023-02-11T13:57:35;100806.84;;;6.86;60.40
73633;BME280;61927;50.080;14.418;2023-02-11T14:11:50;100799.91;;;6.82;60.23
73633;BME280;61927;50.080;14.418;2023-02-11T14:14:54;100802.53;;;6.82;60.55
73633;BME280;61927;50.080;14.418;2023-02-11T14:17:30;100798.91;;;6.86;60.46
73633;BME280;61927;50.080;14.418;2023-02-11T14:19:56;100795.50;;;6.82;60.41
73633;BME280;61927;50.080;14.418;2023-02-11T14:22:26;100792.03;;;6.80;60.42
73633;BME280;61927;50.080;14.418;2023-02-11T14:25:01;100792.97;;;6.77;61.01
73633;BME280;61927;50.080;14.418;2023-02-11T14:27:50;100803.69;;;6.71;60.95
73633;BME280;61927;50.080;14.418;2023-02-11T14:30:28;100796.69;;;6.69;60.56
73633;BME280;61927;50.080;14.418;2023-02-11T14:43:43;100798.88;;;6.52;61.94
73633;BME280;61927;50.080;14.418;2023-02-11T14:46:11;100790.94;;;6.53;61.26
73633;BME280;61927;50.080;14.418;2023-02-11T14:48:38;100797.06;;;6.54;61.34
73633;BME280;61927;50.080;14.418;2023-02-11T14:51:12;100797.06;;;6.54;61.50
73633;BME280;61927;50.080;14.418;2023-02-11T14:53:43;100794.44;;;6.54;61.72
73633;BME280;61927;50.080;14.418;2023-02-11T14:56:20;100800.53;;;6.56;61.19
73633;BME280;61927;50.080;14.418;2023-02-11T14:58:50;100795.25;;;6.56;61.82
73633;BME280;61927;50.080;14.418;2023-02-11T15:01:22;100803.19;;;6.56;61.78
73633;BME280;61927;50.080;14.418;2023-02-11T15:03:51;100800.56;;;6.54;61.79
73633;BME280;61927;50.080;14.418;2023-02-11T15:06:22;100809.44;;;6.52;61.55
73633;BME280;61927;50.080;14.418;2023-02-11T15:09:15;100802.41;;;6.51;61.66
73633;BME280;61927;50.080;14.418;2023-02-11T15:11:42;100807.88;;;6.43;61.73